Time;durP1;ratioP1;P1;durP2;ratioP2;P2;SDS_P1;SDS_P2;PMS_P1;PMS_P2;Temp;Humidity;BMP_temperature;BMP_pressure;BME280_temperature;BME280_humidity;BME280_pressure;Samples;Min_cycle;Max_cycle;Signal;HPM_P1;HPM_P2
2022/02/14 00:00:56;;;;;;;83.40;43.87;;;;;;;;;;4325840;33;20675;-56
2022/02/14 00:03:22;;;;;;;89.43;45.70;;;;;;;;;;4327932;33;20286;-55
2022/02/14 00:05:47;;;;;;;107.13;48.80;;;;;;;;;;4327234;33;20710;-54
2022/02/14 00:08:13;;;;;;;124.63;60.53;;;;;;;;;;4340231;33;20227;-55
2022/02/14 00:10:38;;;;;;;114.97;58.13;;;;;;;;;;4340563;33;20761;-55
2022/02/14 00:13:04;;;;;;;114.53;56.03;;;;;;;;;;4339966;33;20246;-55
2022/02/14 00:15:29;;;;;;;122.10;56.73;;;;;;;;;;4340429;33;20286;-54
2022/02/14 00:17:55;;;;;;;111.87;50.20;;;;;;;;;;4340405;33;20253;-55
2022/02/14 00:20:20;;;;;;;94.57;46.13;;;;;;;;;;4315156;32;20358;-56
2022/02/14 00:22:46;;;;;;;109.03;52.60;;;;;;;;;;4317716;33;20303;-54
2022/02/14 00:25:13;;;;;;;88.73;47.00;;;;;;;;;;4325592;32;20324;-55
2022/02/14 00:27:39;;;;;;;85.33;41.90;;;;;;;;;;4324493;32;20230;-55
2022/02/14 00:30:06;;;;;;;67.10;39.27;;;;;;;;;;4321903;32;20266;-57
2022/02/14 00:32:31;;;;;;;80.97;35.83;;;;;;;;;;4310862;33;20254;-56
2022/02/14 00:34:57;;;;;;;62.97;34.30;;;;;;;;;;4310869;33;20608;-55
2022/02/14 00:37:22;;;;;;;55.63;28.87;;;;;;;;;;4310785;33;20315;-55
2022/02/14 00:39:48;;;;;;;56.60;27.83;;;;;;;;;;4310932;33;20366;-55
2022/02/14 00:42:13;;;;;;;54.83;26.80;;;;;;;;;;4310534;33;20394;-55
2022/02/14 00:44:39;;;;;;;43.27;25.50;;;;;;;;;;4360349;32;20302;-57
2022/02/14 00:47:05;;;;;;;49.27;27.33;;;;;;;;;;4348270;32;20261;-55
2022/02/14 00:49:31;;;;;;;42.17;25.67;;;;;;;;;;4310764;33;20336;-56
2022/02/14 00:51:56;;;;;;;59.13;26.17;;;;;;;;;;4310602;33;20228;-55
2022/02/14 00:54:22;;;;;;;48.60;27.27;;;;;;;;;;4310923;33;20384;-57
2022/02/14 00:56:47;;;;;;;46.73;26.60;;;;;;;;;;4310242;33;20339;-55
2022/02/14 00:59:13;;;;;;;91.13;42.57;;;;;;;;;;4310909;33;20298;-55
2022/02/14 01:01:38;;;;;;;104.50;53.10;;;;;;;;;;4310611;33;20232;-55
2022/02/14 01:04:04;;;;;;;116.93;55.67;;;;;;;;;;4373762;32;20332;-56
2022/02/14 01:06:30;;;;;;;107.33;51.07;;;;;;;;;;4339809;32;20310;-54
2022/02/14 01:08:55;;;;;;;85.70;44.97;;;;;;;;;;4339510;33;20289;-56
2022/02/14 01:11:21;;;;;;;62.63;34.33;;;;;;;;;;4339368;33;20614;-54
2022/02/14 01:13:47;;;;;;;64.53;33.27;;;;;;;;;;4390016;32;20658;-54
2022/02/14 01:16:12;;;;;;;57.57;29.17;;;;;;;;;;4319113;32;20247;-55
2022/02/14 01:18:38;;;;;;;51.97;26.07;;;;;;;;;;4310184;33;20286;-54
2022/02/14 01:21:03;;;;;;;46.37;25.13;;;;;;;;;;4310432;33;20597;-54
2022/02/14 01:23:29;;;;;;;48.57;24.87;;;;;;;;;;4321358;32;20223;-54
2022/02/14 01:25:55;;;;;;;50.03;27.10;;;;;;;;;;4324539;32;20396;-54
2022/02/14 01:28:20;;;;;;;53.67;27.87;;;;;;;;;;4324283;33;20219;-54
2022/02/14 01:30:46;;;;;;;53.77;28.57;;;;;;;;;;4317783;32;20354;-54
2022/02/14 01:33:11;;;;;;;45.17;25.67;;;;;;;;;;4359889;32;20265;-55
2022/02/14 01:35:37;;;;;;;57.07;26.43;;;;;;;;;;4309975;32;20387;-54
2022/02/14 01:38:03;;;;;;;49.17;25.73;;;;;;;;;;4310305;32;20307;-55
2022/02/14 01:40:28;;;;;;;49.63;25.00;;;;;;;;;;4310053;33;20275;-54
2022/02/14 01:42:54;;;;;;;44.00;25.43;;;;;;;;;;4309635;33;20580;-55
2022/02/14 01:45:20;;;;;;;50.53;24.07;;;;;;;;;;4309972;32;20376;-57
2022/02/14 01:47:45;;;;;;;42.73;24.90;;;;;;;;;;4359567;32;20699;-55
2022/02/14 01:50:14;;;;;;;49.00;27.43;;;;;;;;;;4310157;33;20290;-56
2022/02/14 01:52:41;;;;;;;46.90;26.67;;;;;;;;;;4309801;33;20289;-55
2022/02/14 01:55:07;;;;;;;52.63;27.60;;;;;;;;;;4309951;32;20669;-56
2022/02/14 01:57:35;;;;;;;53.10;28.87;;;;;;;;;;4308431;32;20315;-54
2022/02/14 02:00:03;;;;;;;47.57;25.80;;;;;;;;;;4310283;33;20234;-53
2022/02/14 02:02:28;;;;;;;68.33;32.20;;;;;;;;;;4309972;32;20261;-54
2022/02/14 02:04:54;;;;;;;71.13;37.77;;;;;;;;;;4333259;32;20301;-55
2022/02/14 02:07:19;;;;;;;81.57;41.33;;;;;;;;;;4338840;33;20410;-55
2022/02/14 02:09:45;;;;;;;87.07;43.07;;;;;;;;;;4339075;32;20282;-56
2022/02/14 02:12:25;;;;;;;91.10;43.40;;;;;;;;;;4335328;32;20319;-54
2022/02/14 02:14:56;;;;;;;81.47;38.80;;;;;;;;;;4338964;33;20246;-55
2022/02/14 02:17:28;;;;;;;76.57;36.20;;;;;;;;;;4338756;33;20254;-55
2022/02/14 02:19:54;;;;;;;74.43;36.50;;;;;;;;;;4388859;32;20223;-54
2022/02/14 02:22:19;;;;;;;79.97;38.57;;;;;;;;;;4388893;32;20230;-55
2022/02/14 02:24:52;;;;;;;66.43;35.17;;;;;;;;;;4338681;33;20306;-57
2022/02/14 02:27:21;;;;;;;64.87;34.80;;;;;;;;;;4338419;33;20222;-54
2022/02/14 02:29:47;;;;;;;70.53;34.03;;;;;;;;;;4337210;33;20241;-54
2022/02/14 02:32:13;;;;;;;69.23;37.33;;;;;;;;;;4324069;33;20347;-55
2022/02/14 02:34:41;;;;;;;70.63;34.23;;;;;;;;;;4323842;33;20283;-56
2022/02/14 02:37:09;;;;;;;71.80;34.53;;;;;;;;;;4323861;33;20296;-55
2022/02/14 02:39:36;;;;;;;65.20;34.10;;;;;;;;;;4323851;33;20620;-55
2022/02/14 02:42:04;;;;;;;66.20;37.30;;;;;;;;;;4323783;32;20227;-55
2022/02/14 02:44:32;;;;;;;76.70;36.07;;;;;;;;;;4373937;32;20227;-54
2022/02/14 02:46:58;;;;;;;77.07;36.37;;;;;;;;;;4324026;33;20249;-55
2022/02/14 02:49:24;;;;;;;71.40;35.53;;;;;;;;;;4323845;33;20262;-57
2022/02/14 02:51:51;;;;;;;74.90;35.80;;;;;;;;;;4324886;33;20291;-55
2022/02/14 02:54:19;;;;;;;71.47;34.77;;;;;;;;;;4326620;33;20710;-55
2022/02/14 02:56:46;;;;;;;68.10;35.07;;;;;;;;;;4326203;33;20231;-55
2022/02/14 02:59:12;;;;;;;70.17;36.47;;;;;;;;;;4326800;33;20228;-55
2022/02/14 03:01:39;;;;;;;77.23;37.80;;;;;;;;;;4326461;33;20592;-55
2022/02/14 03:04:08;;;;;;;94.00;41.80;;;;;;;;;;4333305;33;20215;-55
2022/02/14 03:06:34;;;;;;;70.07;39.17;;;;;;;;;;4340897;32;20262;-55
2022/02/14 03:09:00;;;;;;;88.70;41.27;;;;;;;;;;4340723;32;20274;-55
2022/02/14 03:11:27;;;;;;;82.73;40.70;;;;;;;;;;4340348;32;20300;-56
2022/02/14 03:13:53;;;;;;;73.07;36.97;;;;;;;;;;4341142;33;20404;-55
2022/02/14 03:16:19;;;;;;;64.43;35.33;;;;;;;;;;4340502;33;20234;-55
2022/02/14 03:18:45;;;;;;;72.00;34.80;;;;;;;;;;4340857;32;20293;-55
2022/02/14 03:21:12;;;;;;;73.70;38.23;;;;;;;;;;4340895;33;20287;-55
2022/02/14 03:23:38;;;;;;;71.50;36.87;;;;;;;;;;4340787;33;21185;-55
2022/02/14 03:26:04;;;;;;;64.17;36.17;;;;;;;;;;4340808;33;20270;-55
2022/02/14 03:28:30;;;;;;;75.63;35.03;;;;;;;;;;4340659;33;20291;-55
2022/02/14 03:30:57;;;;;;;66.60;36.47;;;;;;;;;;4332381;33;20294;-55
2022/02/14 03:33:23;;;;;;;68.07;38.60;;;;;;;;;;4389131;32;20393;-55
2022/02/14 03:35:49;;;;;;;71.60;39.17;;;;;;;;;;4326496;33;20295;-56
2022/02/14 03:38:15;;;;;;;67.20;38.43;;;;;;;;;;4326036;33;20227;-55
2022/02/14 03:40:41;;;;;;;69.20;38.03;;;;;;;;;;4325573;33;20298;-55
2022/02/14 03:43:06;;;;;;;70.27;40.37;;;;;;;;;;4326193;33;20246;-55
2022/02/14 03:45:34;;;;;;;71.47;38.70;;;;;;;;;;4376163;32;20354;-56
2022/02/14 03:48:00;;;;;;;65.83;38.97;;;;;;;;;;4326251;32;20563;-55
2022/02/14 03:50:26;;;;;;;74.43;38.33;;;;;;;;;;4325862;33;20270;-57
2022/02/14 03:52:52;;;;;;;69.07;38.30;;;;;;;;;;4325670;33;20275;-54
2022/02/14 03:55:18;;;;;;;75.03;40.03;;;;;;;;;;4325612;33;20281;-56
2022/02/14 03:57:44;;;;;;;70.53;38.30;;;;;;;;;;4325516;33;20278;-55
2022/02/14 04:00:11;;;;;;;75.90;41.60;;;;;;;;;;4325731;33;20336;-54
2022/02/14 04:02:38;;;;;;;86.87;42.20;;;;;;;;;;4324975;33;20223;-54
2022/02/14 04:05:04;;;;;;;83.80;40.33;;;;;;;;;;4338025;32;20269;-54
2022/02/14 04:07:30;;;;;;;71.57;40.10;;;;;;;;;;4340119;33;20227;-57
2022/02/14 04:09:56;;;;;;;67.57;36.77;;;;;;;;;;4340611;33;20345;-57
2022/02/14 04:12:22;;;;;;;88.87;41.77;;;;;;;;;;4339881;32;20239;-55
2022/02/14 04:14:48;;;;;;;93.80;43.07;;;;;;;;;;4330775;33;20556;-55
2022/02/14 04:17:13;;;;;;;79.97;43.10;;;;;;;;;;4325078;33;20543;-55
2022/02/14 04:19:39;;;;;;;77.07;41.43;;;;;;;;;;4325530;33;20357;-56
2022/02/14 04:22:05;;;;;;;66.73;38.47;;;;;;;;;;4328322;33;20306;-55
2022/02/14 04:24:31;;;;;;;70.73;38.77;;;;;;;;;;4325600;32;20274;-55
2022/02/14 04:26:56;;;;;;;65.10;38.60;;;;;;;;;;4325080;33;20259;-55
2022/02/14 04:29:22;;;;;;;71.93;38.80;;;;;;;;;;4337980;33;20378;-57
2022/02/14 04:31:48;;;;;;;71.33;38.33;;;;;;;;;;4332809;33;20235;-55
2022/02/14 04:34:14;;;;;;;78.07;38.63;;;;;;;;;;4388471;32;20389;-55
2022/02/14 04:36:40;;;;;;;66.40;37.30;;;;;;;;;;4375038;32;20288;-55
2022/02/14 04:39:05;;;;;;;63.87;33.27;;;;;;;;;;4325575;33;20270;-55
2022/02/14 04:41:31;;;;;;;59.13;33.67;;;;;;;;;;4325375;33;20243;-55
2022/02/14 04:43:56;;;;;;;65.93;34.77;;;;;;;;;;4325699;32;20866;-54
2022/02/14 04:46:22;;;;;;;61.37;34.70;;;;;;;;;;4325257;33;20310;-55
2022/02/14 04:48:47;;;;;;;68.57;34.37;;;;;;;;;;4324981;33;20742;-56
2022/02/14 04:51:13;;;;;;;59.30;35.83;;;;;;;;;;4325382;33;20645;-55
2022/02/14 04:53:38;;;;;;;62.60;37.10;;;;;;;;;;4325359;33;20313;-54
2022/02/14 04:56:04;;;;;;;55.10;35.03;;;;;;;;;;4375528;32;20774;-55
2022/02/14 04:58:30;;;;;;;61.57;36.90;;;;;;;;;;4325853;33;20632;-54
2022/02/14 05:00:56;;;;;;;63.40;37.37;;;;;;;;;;4375544;32;20329;-55
2022/02/14 05:03:21;;;;;;;73.47;43.47;;;;;;;;;;4327934;33;20280;-54
2022/02/14 05:05:47;;;;;;;154.77;72.30;;;;;;;;;;4340445;33;20284;-55
2022/02/14 05:08:12;;;;;;;237.00;114.17;;;;;;;;;;4340627;32;20736;-55
2022/02/14 05:10:38;;;;;;;139.33;73.43;;;;;;;;;;4390636;32;20316;-56
2022/02/14 05:13:04;;;;;;;112.27;63.80;;;;;;;;;;4340523;33;20356;-54
2022/02/14 05:15:29;;;;;;;94.30;59.00;;;;;;;;;;4340350;33;20330;-56
2022/02/14 05:17:55;;;;;;;90.90;54.83;;;;;;;;;;4340223;33;20337;-55
2022/02/14 05:20:20;;;;;;;106.77;56.60;;;;;;;;;;4391028;32;20310;-55
2022/02/14 05:22:46;;;;;;;85.20;49.07;;;;;;;;;;4340034;33;20730;-55
2022/02/14 05:25:11;;;;;;;91.20;49.40;;;;;;;;;;4340093;33;20658;-56
2022/02/14 05:27:37;;;;;;;72.70;43.40;;;;;;;;;;4391053;32;20581;-56
2022/02/14 05:30:04;;;;;;;76.00;43.20;;;;;;;;;;4377871;32;20355;-57
2022/02/14 05:32:29;;;;;;;81.10;43.37;;;;;;;;;;4340542;33;20245;-55
2022/02/14 05:34:56;;;;;;;75.80;44.77;;;;;;;;;;4340467;33;21150;-55
2022/02/14 05:37:22;;;;;;;73.60;45.33;;;;;;;;;;4340212;33;20257;-55
2022/02/14 05:39:48;;;;;;;81.63;48.77;;;;;;;;;;4340428;33;20292;-56
2022/02/14 05:42:15;;;;;;;100.90;57.67;;;;;;;;;;4340248;33;20219;-56
2022/02/14 05:44:41;;;;;;;111.90;66.23;;;;;;;;;;4339906;33;20298;-57
2022/02/14 05:47:07;;;;;;;110.83;65.60;;;;;;;;;;4339763;33;20242;-56
2022/02/14 05:49:32;;;;;;;118.23;70.17;;;;;;;;;;4389064;32;20352;-55
2022/02/14 05:51:58;;;;;;;115.77;67.97;;;;;;;;;;4339314;33;20258;-57
2022/02/14 05:54:23;;;;;;;106.07;56.03;;;;;;;;;;4339283;33;20716;-54
2022/02/14 05:56:49;;;;;;;99.57;60.63;;;;;;;;;;4339658;33;20238;-55
2022/02/14 05:59:14;;;;;;;101.57;57.57;;;;;;;;;;4339807;33;20616;-55
2022/02/14 06:01:40;;;;;;;91.57;52.67;;;;;;;;;;4339719;33;20218;-55
2022/02/14 06:04:06;;;;;;;86.87;52.27;;;;;;;;;;4332933;33;20336;-58
2022/02/14 06:06:31;;;;;;;97.70;57.17;;;;;;;;;;4325438;33;20349;-55
2022/02/14 06:08:57;;;;;;;85.93;54.40;;;;;;;;;;4324757;33;20565;-55
2022/02/14 06:11:22;;;;;;;96.23;57.13;;;;;;;;;;4328358;33;20289;-54
2022/02/14 06:13:48;;;;;;;89.87;56.57;;;;;;;;;;4339656;33;20533;-56
2022/02/14 06:16:13;;;;;;;95.17;57.40;;;;;;;;;;4389820;32;20326;-57
2022/02/14 06:18:39;;;;;;;91.83;57.23;;;;;;;;;;4339129;33;20380;-58
2022/02/14 06:21:04;;;;;;;94.17;55.60;;;;;;;;;;4339966;33;20223;-56
2022/02/14 06:23:30;;;;;;;103.07;59.10;;;;;;;;;;4339944;33;20231;-57
2022/02/14 06:25:55;;;;;;;114.30;64.70;;;;;;;;;;4339768;33;20274;-55
2022/02/14 06:28:21;;;;;;;122.63;64.27;;;;;;;;;;4342388;33;20245;-55
2022/02/14 06:30:46;;;;;;;117.80;67.67;;;;;;;;;;4342784;33;20282;-55
2022/02/14 06:33:13;;;;;;;147.77;80.23;;;;;;;;;;4393894;32;20331;-57
2022/02/14 06:35:40;;;;;;;145.13;82.47;;;;;;;;;;4343159;33;20195;-54
2022/02/14 06:38:05;;;;;;;138.33;83.53;;;;;;;;;;4342732;33;20249;-56
2022/02/14 06:40:31;;;;;;;163.27;92.50;;;;;;;;;;4342230;33;20215;-55
2022/02/14 06:42:57;;;;;;;168.73;98.23;;;;;;;;;;4340867;33;20617;-55
2022/02/14 06:45:23;;;;;;;170.17;101.00;;;;;;;;;;4340963;33;20458;-57
2022/02/14 06:47:48;;;;;;;175.67;103.27;;;;;;;;;;4341087;33;20289;-56
2022/02/14 06:50:14;;;;;;;152.30;92.50;;;;;;;;;;4391914;32;20298;-55
2022/02/14 06:52:39;;;;;;;171.53;95.13;;;;;;;;;;4340783;33;20222;-55
2022/02/14 06:55:08;;;;;;;159.20;92.33;;;;;;;;;;4341207;33;20351;-56
2022/02/14 06:57:36;;;;;;;169.00;94.40;;;;;;;;;;4342579;33;20808;-56
2022/02/14 07:00:05;;;;;;;161.57;92.47;;;;;;;;;;4393443;32;20263;-56
2022/02/14 07:02:30;;;;;;;166.83;98.70;;;;;;;;;;4342756;33;20545;-55
2022/02/14 07:04:56;;;;;;;172.93;105.67;;;;;;;;;;4330760;33;20337;-55
2022/02/14 07:07:21;;;;;;;176.77;100.70;;;;;;;;;;4327776;32;20620;-56
2022/02/14 07:09:48;;;;;;;167.87;96.40;;;;;;;;;;4327521;33;20289;-55
2022/02/14 07:12:13;;;;;;;164.23;95.30;;;;;;;;;;4327538;32;20365;-55
2022/02/14 07:14:38;;;;;;;159.80;96.53;;;;;;;;;;4334441;32;20278;-55
2022/02/14 07:17:04;;;;;;;191.27;107.93;;;;;;;;;;4342337;33;20291;-56
2022/02/14 07:19:29;;;;;;;192.03;110.40;;;;;;;;;;4341983;32;20599;-56
2022/02/14 07:21:55;;;;;;;192.70;114.57;;;;;;;;;;4341722;33;20309;-57
2022/02/14 07:24:21;;;;;;;204.53;123.67;;;;;;;;;;4327358;33;20289;-56
2022/02/14 07:26:46;;;;;;;226.73;124.90;;;;;;;;;;4327468;33;20632;-54
2022/02/14 07:29:12;;;;;;;250.67;139.47;;;;;;;;;;4365108;32;20308;-54
2022/02/14 07:31:37;;;;;;;253.33;140.77;;;;;;;;;;4340585;33;20290;-55
2022/02/14 07:34:03;;;;;;;268.60;146.43;;;;;;;;;;4388434;32;20418;-54
2022/02/14 07:36:28;;;;;;;303.60;162.43;;;;;;;;;;4390375;32;20346;-55
2022/02/14 07:38:54;;;;;;;309.43;172.37;;;;;;;;;;4339187;33;20281;-57
2022/02/14 07:41:20;;;;;;;294.47;167.97;;;;;;;;;;4339526;33;20258;-55
2022/02/14 07:43:45;;;;;;;277.77;169.03;;;;;;;;;;4390537;32;20649;-57
2022/02/14 07:46:11;;;;;;;287.03;163.57;;;;;;;;;;4339705;33;20227;-55
2022/02/14 07:48:37;;;;;;;227.13;125.87;;;;;;;;;;4339905;33;20286;-54
2022/02/14 07:51:02;;;;;;;182.97;100.40;;;;;;;;;;4341391;32;20850;-54
2022/02/14 07:53:28;;;;;;;153.30;91.00;;;;;;;;;;4341059;33;20210;-55
2022/02/14 07:55:54;;;;;;;143.93;79.33;;;;;;;;;;4340786;33;20322;-54
2022/02/14 07:58:19;;;;;;;129.13;74.27;;;;;;;;;;4340844;32;20261;-55
2022/02/14 08:00:44;;;;;;;122.03;80.60;;;;;;;;;;4341758;32;20311;-55
2022/02/14 08:03:10;;;;;;;117.53;70.17;;;;;;;;;;4358278;32;20666;-54
2022/02/14 08:05:35;;;;;;;106.43;66.17;;;;;;;;;;4373254;32;20453;-55
2022/02/14 08:08:01;;;;;;;113.97;66.23;;;;;;;;;;4341290;32;20250;-54
2022/02/14 08:10:27;;;;;;;115.40;70.67;;;;;;;;;;4341492;33;20282;-55
2022/02/14 08:12:53;;;;;;;101.77;65.50;;;;;;;;;;4341205;32;20309;-55
2022/02/14 08:15:18;;;;;;;99.13;61.27;;;;;;;;;;4341793;33;20282;-54
2022/02/14 08:17:43;;;;;;;97.40;57.90;;;;;;;;;;4338213;33;20363;-55
2022/02/14 08:20:10;;;;;;;100.23;61.70;;;;;;;;;;4340271;33;20278;-55
2022/02/14 08:22:35;;;;;;;99.17;61.57;;;;;;;;;;4340201;33;20273;-55
2022/02/14 08:25:01;;;;;;;101.40;59.70;;;;;;;;;;4339453;32;20290;-55
2022/02/14 08:27:26;;;;;;;101.80;61.57;;;;;;;;;;4340649;32;20318;-55
2022/02/14 08:29:52;;;;;;;100.67;57.43;;;;;;;;;;4341455;33;20799;-55
2022/02/14 08:32:18;;;;;;;102.97;60.93;;;;;;;;;;4340311;33;20599;-55
2022/02/14 08:34:43;;;;;;;105.97;64.77;;;;;;;;;;4340164;33;20274;-57
2022/02/14 08:37:11;;;;;;;149.83;76.37;;;;;;;;;;4339948;32;20222;-55
2022/02/14 08:39:37;;;;;;;203.67;111.93;;;;;;;;;;4338342;32;20304;-54
2022/02/14 08:42:03;;;;;;;141.43;84.10;;;;;;;;;;4339365;32;20243;-55
2022/02/14 08:44:29;;;;;;;129.30;74.57;;;;;;;;;;4337867;32;20309;-56
2022/02/14 08:46:54;;;;;;;155.27;95.77;;;;;;;;;;4338509;33;20278;-55
2022/02/14 08:49:24;;;;;;;136.07;75.83;;;;;;;;;;4338812;32;20377;-56
2022/02/14 08:51:53;;;;;;;134.73;80.13;;;;;;;;;;4338418;33;20245;-54
2022/02/14 08:54:19;;;;;;;125.83;75.20;;;;;;;;;;4338263;33;20266;-55
2022/02/14 08:56:45;;;;;;;137.87;79.63;;;;;;;;;;4337457;32;20231;-55
2022/02/14 08:59:13;;;;;;;147.07;83.50;;;;;;;;;;4387292;32;20606;-55
2022/02/14 09:01:39;;;;;;;136.20;77.67;;;;;;;;;;4346144;32;20393;-54
2022/02/14 09:04:04;;;;;;;113.57;67.10;;;;;;;;;;4357548;32;20322;-54
2022/02/14 09:06:30;;;;;;;95.70;59.07;;;;;;;;;;4338765;32;20302;-54
2022/02/14 09:08:55;;;;;;;82.43;50.47;;;;;;;;;;4386912;32;20326;-55
2022/02/14 09:11:21;;;;;;;91.77;54.53;;;;;;;;;;4354702;32;20601;-55
2022/02/14 09:13:47;;;;;;;80.93;52.77;;;;;;;;;;4338766;33;20250;-55
2022/02/14 09:16:12;;;;;;;78.47;48.80;;;;;;;;;;4325734;33;20255;-55
2022/02/14 09:18:38;;;;;;;80.30;49.80;;;;;;;;;;4339622;32;20266;-55
2022/02/14 09:21:05;;;;;;;81.20;51.17;;;;;;;;;;4325893;33;20332;-55
2022/02/14 09:23:31;;;;;;;78.67;47.13;;;;;;;;;;4338890;33;20211;-55
2022/02/14 09:25:58;;;;;;;87.83;52.07;;;;;;;;;;4338894;33;20550;-55
2022/02/14 09:28:24;;;;;;;89.77;54.93;;;;;;;;;;4339093;33;20286;-56
2022/02/14 09:30:50;;;;;;;103.87;58.00;;;;;;;;;;4324500;33;20279;-56
2022/02/14 09:33:15;;;;;;;77.53;45.90;;;;;;;;;;4325447;33;20254;-56
2022/02/14 09:35:41;;;;;;;84.90;51.17;;;;;;;;;;4325158;33;20806;-56
2022/02/14 09:38:08;;;;;;;77.23;49.90;;;;;;;;;;4337974;33;20416;-54
2022/02/14 09:40:35;;;;;;;73.33;49.30;;;;;;;;;;4338732;33;20374;-57
2022/02/14 09:43:02;;;;;;;92.17;56.47;;;;;;;;;;4325780;33;20254;-55
2022/02/14 09:45:29;;;;;;;88.60;52.67;;;;;;;;;;4338782;33;20231;-55
2022/02/14 09:47:57;;;;;;;82.67;50.70;;;;;;;;;;4311479;32;20725;-56
2022/02/14 09:50:23;;;;;;;85.10;52.37;;;;;;;;;;4327134;33;20269;-56
2022/02/14 09:52:49;;;;;;;91.97;53.63;;;;;;;;;;4338477;33;20811;-55
2022/02/14 09:55:15;;;;;;;102.20;59.10;;;;;;;;;;4338199;33;20281;-58
2022/02/14 09:57:40;;;;;;;175.70;90.57;;;;;;;;;;4338663;33;20319;-57
2022/02/14 10:00:08;;;;;;;145.97;87.83;;;;;;;;;;4338086;33;20277;-57
2022/02/14 10:02:35;;;;;;;213.20;120.17;;;;;;;;;;4324234;33;20266;-56
2022/02/14 10:05:05;;;;;;;92.83;59.87;;;;;;;;;;4329966;32;20303;-56
2022/02/14 10:07:42;;;;;;;105.03;64.37;;;;;;;;;;4338153;33;20295;-56
2022/02/14 10:10:12;;;;;;;96.50;58.90;;;;;;;;;;4338374;33;20229;-55
2022/02/14 10:12:40;;;;;;;91.33;58.07;;;;;;;;;;4360750;32;20804;-56
2022/02/14 10:15:07;;;;;;;93.63;53.90;;;;;;;;;;4391792;32;20260;-57
2022/02/14 10:17:46;;;;;;;100.33;61.87;;;;;;;;;;4399839;32;20353;-55
2022/02/14 10:20:15;;;;;;;103.33;61.00;;;;;;;;;;4397744;32;20213;-59
2022/02/14 10:22:51;;;;;;;104.43;59.77;;;;;;;;;;4397524;32;20225;-57
2022/02/14 10:25:31;;;;;;;94.33;57.80;;;;;;;;;;4397791;32;20256;-56
2022/02/14 10:28:18;;;;;;;73.07;43.63;;;;;;;;;;4396588;32;20631;-56
2022/02/14 10:31:07;;;;;;;87.20;52.47;;;;;;;;;;4400199;32;20229;-56
2022/02/14 10:33:57;;;;;;;90.97;54.77;;;;;;;;;;4400191;32;20322;-58
2022/02/14 10:36:24;;;;;;;102.13;58.47;;;;;;;;;;4386823;32;20320;-55
2022/02/14 10:38:50;;;;;;;95.90;55.03;;;;;;;;;;4399829;32;20301;-55
2022/02/14 10:41:17;;;;;;;90.00;56.83;;;;;;;;;;4397458;32;20379;-55
2022/02/14 10:43:43;;;;;;;115.37;66.47;;;;;;;;;;4399327;32;20312;-55
2022/02/14 10:46:18;;;;;;;110.17;67.33;;;;;;;;;;4400020;32;20356;-55
2022/02/14 10:48:44;;;;;;;94.50;56.93;;;;;;;;;;4398897;32;20233;-57
2022/02/14 10:51:17;;;;;;;83.80;49.10;;;;;;;;;;4391484;32;20382;-55
2022/02/14 10:53:48;;;;;;;76.37;41.60;;;;;;;;;;4396203;32;20272;-55
2022/02/14 10:56:15;;;;;;;76.10;50.67;;;;;;;;;;4398665;32;20355;-56
2022/02/14 10:58:44;;;;;;;171.93;100.70;;;;;;;;;;4397207;32;20325;-56
2022/02/14 11:01:11;;;;;;;94.53;60.23;;;;;;;;;;4398903;32;20339;-56
2022/02/14 11:03:44;;;;;;;105.03;62.37;;;;;;;;;;4398267;32;20274;-56
2022/02/14 11:06:13;;;;;;;112.40;63.03;;;;;;;;;;4398791;32;20320;-56
2022/02/14 11:08:39;;;;;;;92.67;56.87;;;;;;;;;;4397373;32;20273;-56
2022/02/14 11:11:09;;;;;;;113.77;64.93;;;;;;;;;;4399190;32;20276;-56
2022/02/14 11:13:35;;;;;;;96.63;59.70;;;;;;;;;;4400437;32;20377;-56
2022/02/14 11:16:02;;;;;;;172.17;86.97;;;;;;;;;;4389157;32;20760;-55
2022/02/14 11:18:33;;;;;;;109.03;61.63;;;;;;;;;;4403001;32;20205;-58
2022/02/14 11:21:02;;;;;;;105.33;62.57;;;;;;;;;;4394085;32;20239;-56
2022/02/14 11:23:32;;;;;;;138.93;77.00;;;;;;;;;;4402501;32;20530;-56
2022/02/14 11:26:17;;;;;;;80.33;50.37;;;;;;;;;;4398900;32;20238;-54
2022/02/14 11:28:46;;;;;;;105.43;62.40;;;;;;;;;;4402322;32;20690;-56
2022/02/14 11:31:27;;;;;;;113.23;64.47;;;;;;;;;;4402233;32;20331;-56
2022/02/14 11:33:56;;;;;;;70.37;45.10;;;;;;;;;;4400914;32;20300;-55
2022/02/14 11:36:23;;;;;;;70.23;40.83;;;;;;;;;;4400013;32;20333;-56
2022/02/14 11:38:58;;;;;;;58.93;40.70;;;;;;;;;;4392352;32;20626;-56
2022/02/14 11:41:27;;;;;;;62.50;40.63;;;;;;;;;;4395923;32;20374;-56
2022/02/14 11:44:11;;;;;;;53.37;34.13;;;;;;;;;;4400663;32;20292;-57
2022/02/14 11:46:42;;;;;;;45.47;31.97;;;;;;;;;;4398721;32;20264;-55
2022/02/14 11:49:08;;;;;;;127.27;64.93;;;;;;;;;;4400746;32;20264;-55
2022/02/14 11:51:52;;;;;;;65.53;39.43;;;;;;;;;;4400283;32;20248;-55
2022/02/14 11:54:36;;;;;;;42.10;28.20;;;;;;;;;;4400132;32;20293;-55
2022/02/14 11:57:29;;;;;;;46.73;32.97;;;;;;;;;;4401867;32;20295;-56
2022/02/14 12:00:13;;;;;;;99.57;55.57;;;;;;;;;;4402404;32;20270;-56
2022/02/14 12:02:40;;;;;;;61.77;33.27;;;;;;;;;;4401891;32;20256;-56
2022/02/14 12:05:06;;;;;;;62.13;37.43;;;;;;;;;;4401842;32;20249;-56
2022/02/14 12:07:36;;;;;;;59.10;35.70;;;;;;;;;;4402011;32;20344;-57
2022/02/14 12:10:19;;;;;;;60.17;37.77;;;;;;;;;;4402110;32;20289;-56
2022/02/14 12:21:12;;;;;;;45.80;29.73;;;;;;;;;;4333659;33;20270;-56
2022/02/14 12:23:44;;;;;;;46.73;30.97;;;;;;;;;;4338981;33;20226;-55
2022/02/14 12:26:15;;;;;;;26.93;17.20;;;;;;;;;;4337207;33;20440;-56
2022/02/14 12:28:42;;;;;;;26.27;18.43;;;;;;;;;;4339874;33;20287;-55
2022/02/14 12:31:09;;;;;;;24.80;17.13;;;;;;;;;;4339881;32;20729;-55
2022/02/14 12:33:35;;;;;;;31.63;19.27;;;;;;;;;;4339695;33;20604;-55
2022/02/14 12:36:06;;;;;;;34.33;25.07;;;;;;;;;;4339154;33;20224;-55
2022/02/14 12:38:36;;;;;;;34.40;21.93;;;;;;;;;;4339655;32;20219;-56
2022/02/14 12:41:10;;;;;;;26.27;17.73;;;;;;;;;;4340068;33;20613;-55
2022/02/14 12:43:38;;;;;;;25.17;18.20;;;;;;;;;;4339681;33;20206;-56
2022/02/14 12:46:06;;;;;;;33.43;19.83;;;;;;;;;;4339298;32;20279;-56
2022/02/14 12:48:33;;;;;;;23.33;16.40;;;;;;;;;;4339430;33;20260;-55
2022/02/14 12:51:07;;;;;;;31.73;19.63;;;;;;;;;;4339549;32;20714;-54
2022/02/14 12:53:37;;;;;;;34.47;20.30;;;;;;;;;;4339217;32;20278;-57
2022/02/14 12:56:20;;;;;;;30.00;18.30;;;;;;;;;;4339513;32;20324;-55
2022/02/14 12:59:00;;;;;;;31.57;17.60;;;;;;;;;;4337926;33;20285;-55
2022/02/14 13:01:46;;;;;;;25.17;17.63;;;;;;;;;;4387709;32;20321;-55
2022/02/14 13:04:15;;;;;;;24.07;16.43;;;;;;;;;;4337590;32;20310;-56
2022/02/14 13:06:43;;;;;;;27.60;17.43;;;;;;;;;;4374437;32;20236;-54
2022/02/14 13:09:24;;;;;;;27.80;18.93;;;;;;;;;;4330371;33;20607;-55
2022/02/14 13:11:52;;;;;;;27.93;17.93;;;;;;;;;;4337411;32;20281;-55
2022/02/14 13:14:34;;;;;;;28.53;17.73;;;;;;;;;;4339219;33;20687;-56
2022/02/14 13:17:05;;;;;;;22.07;14.67;;;;;;;;;;4335684;33;20250;-55
2022/02/14 13:19:33;;;;;;;21.43;13.63;;;;;;;;;;4339435;32;20698;-54
2022/02/14 13:22:00;;;;;;;19.70;14.23;;;;;;;;;;4338935;33;20316;-56
2022/02/14 13:24:31;;;;;;;20.30;14.87;;;;;;;;;;4339217;32;20666;-55
2022/02/14 13:27:00;;;;;;;24.67;15.57;;;;;;;;;;4368311;32;20247;-54
2022/02/14 13:29:31;;;;;;;19.67;14.83;;;;;;;;;;4334488;33;20282;-55
2022/02/14 13:31:57;;;;;;;17.17;11.73;;;;;;;;;;4388797;32;20227;-55
2022/02/14 13:34:22;;;;;;;22.60;14.80;;;;;;;;;;4339441;33;20320;-56
2022/02/14 13:36:53;;;;;;;27.20;17.80;;;;;;;;;;4339220;33;20292;-56
2022/02/14 13:39:30;;;;;;;43.93;23.50;;;;;;;;;;4357308;32;20785;-56
2022/02/14 13:41:56;;;;;;;32.93;20.47;;;;;;;;;;4336554;33;20282;-54
2022/02/14 13:44:22;;;;;;;46.63;24.87;;;;;;;;;;4327282;33;20332;-57
2022/02/14 13:46:47;;;;;;;22.50;13.73;;;;;;;;;;4358513;32;20235;-54
2022/02/14 13:49:31;;;;;;;34.13;18.27;;;;;;;;;;4372986;32;20816;-56
2022/02/14 13:51:57;;;;;;;16.90;10.23;;;;;;;;;;4335687;32;20273;-54
2022/02/14 13:54:23;;;;;;;62.10;30.27;;;;;;;;;;4339214;32;20325;-55
2022/02/14 13:56:49;;;;;;;15.57;11.70;;;;;;;;;;4339300;32;20219;-55
2022/02/14 13:59:29;;;;;;;34.30;12.87;;;;;;;;;;4388508;32;20654;-55
2022/02/14 14:02:15;;;;;;;16.03;11.73;;;;;;;;;;4338852;33;20242;-55
2022/02/14 14:04:41;;;;;;;25.07;15.47;;;;;;;;;;4334441;33;20210;-54
2022/02/14 14:07:16;;;;;;;21.57;10.87;;;;;;;;;;4361866;32;20271;-55
2022/02/14 14:09:54;;;;;;;20.13;13.40;;;;;;;;;;4335204;33;20276;-56
2022/02/14 14:12:27;;;;;;;18.80;12.27;;;;;;;;;;4338375;32;20311;-54
2022/02/14 14:14:57;;;;;;;13.70;10.67;;;;;;;;;;4338806;32;20591;-54
2022/02/14 14:17:25;;;;;;;14.27;9.70;;;;;;;;;;4387859;32;20991;-56
2022/02/14 14:19:59;;;;;;;19.10;15.03;;;;;;;;;;4338525;32;20676;-55
2022/02/14 14:22:33;;;;;;;16.00;11.77;;;;;;;;;;4326523;33;20239;-55